sensor_id;sensor_type;location;lat;lon;timestamp;pressure;altitude;pressure_sealevel;temperature;humidity
17309;BME280;8772;42.804;23.426;2022-09-02T00:00:40;94346.88;;;20.04;100.00
17309;BME280;8772;42.804;23.426;2022-09-02T00:03:07;94353.81;;;20.05;100.00
17309;BME280;8772;42.804;23.426;2022-09-02T00:05:34;94354.25;;;20.04;100.00
17309;BME280;8772;42.804;23.426;2022-09-02T00:08:01;94353.09;;;20.10;100.00
17309;BME280;8772;42.804;23.426;2022-09-02T00:10:28;94357.88;;;20.15;100.00
17309;BME280;8772;42.804;23.426;2022-09-02T00:12:55;94359.28;;;20.11;100.00
17309;BME280;8772;42.804;23.426;2022-09-02T00:15:24;94359.97;;;20.06;100.00
17309;BME280;8772;42.804;23.426;2022-09-02T00:17:51;94359.09;;;20.14;100.00
17309;BME280;8772;42.804;23.426;2022-09-02T00:20:18;94361.63;;;20.23;100.00
17309;BME280;8772;42.804;23.426;2022-09-02T00:22:45;94365.56;;;20.22;100.00
17309;BME280;8772;42.804;23.426;2022-09-02T00:25:12;94366.13;;;20.26;100.00
17309;BME280;8772;42.804;23.426;2022-09-02T00:27:39;94354.50;;;20.25;100.00
17309;BME280;8772;42.804;23.426;2022-09-02T00:30:07;94358.00;;;20.26;100.00
17309;BME280;8772;42.804;23.426;2022-09-02T00:32:35;94358.53;;;20.10;100.00
17309;BME280;8772;42.804;23.426;2022-09-02T00:35:03;94357.69;;;20.24;100.00
17309;BME280;8772;42.804;23.426;2022-09-02T00:37:30;94358.13;;;20.17;100.00
17309;BME280;8772;42.804;23.426;2022-09-02T00:39:57;94356.91;;;20.18;100.00
17309;BME280;8772;42.804;23.426;2022-09-02T00:42:25;94346.84;;;20.24;100.00
17309;BME280;8772;42.804;23.426;2022-09-02T00:44:52;94359.34;;;20.16;100.00
17309;BME280;8772;42.804;23.426;2022-09-02T00:47:19;94350.78;;;20.23;100.00
17309;BME280;8772;42.804;23.426;2022-09-02T00:49:51;94354.31;;;20.29;100.00
17309;BME280;8772;42.804;23.426;2022-09-02T00:52:21;94355.28;;;20.26;100.00
17309;BME280;8772;42.804;23.426;2022-09-02T00:54:52;94355.03;;;20.04;100.00
17309;BME280;8772;42.804;23.426;2022-09-02T00:57:24;94359.09;;;20.14;100.00
17309;BME280;8772;42.804;23.426;2022-09-02T01:00:00;94350.38;;;20.10;100.00
17309;BME280;8772;42.804;23.426;2022-09-02T01:02:28;94362.19;;;20.27;100.00
17309;BME280;8772;42.804;23.426;2022-09-02T01:11:39;94364.06;;;20.41;100.00
17309;BME280;8772;42.804;23.426;2022-09-02T01:14:07;94360.38;;;20.44;100.00
17309;BME280;8772;42.804;23.426;2022-09-02T01:16:39;94372.25;;;20.46;100.00
17309;BME280;8772;42.804;23.426;2022-09-02T01:19:11;94373.50;;;20.45;100.00
17309;BME280;8772;42.804;23.426;2022-09-02T01:21:46;94374.00;;;20.49;100.00
17309;BME280;8772;42.804;23.426;2022-09-02T01:24:13;94366.34;;;20.48;100.00
17309;BME280;8772;42.804;23.426;2022-09-02T01:26:41;94368.59;;;20.49;100.00
17309;BME280;8772;42.804;23.426;2022-09-02T01:29:08;94363.34;;;20.46;100.00
17309;BME280;8772;42.804;23.426;2022-09-02T01:31:35;94369.06;;;20.48;100.00
17309;BME280;8772;42.804;23.426;2022-09-02T01:34:01;94354.88;;;20.38;100.00
17309;BME280;8772;42.804;23.426;2022-09-02T01:36:31;94363.78;;;20.39;100.00
17309;BME280;8772;42.804;23.426;2022-09-02T01:39:00;94353.19;;;20.41;100.00
17309;BME280;8772;42.804;23.426;2022-09-02T01:41:27;94358.38;;;20.39;100.00
17309;BME280;8772;42.804;23.426;2022-09-02T01:43:54;94364.06;;;20.41;100.00
17309;BME280;8772;42.804;23.426;2022-09-02T01:46:21;94365.28;;;20.40;100.00
17309;BME280;8772;42.804;23.426;2022-09-02T01:48:48;94376.88;;;20.40;100.00
17309;BME280;8772;42.804;23.426;2022-09-02T01:51:17;94376.16;;;20.40;100.00
17309;BME280;8772;42.804;23.426;2022-09-02T01:53:45;94378.06;;;20.34;100.00
17309;BME280;8772;42.804;23.426;2022-09-02T01:56:14;94373.59;;;20.31;100.00
17309;BME280;8772;42.804;23.426;2022-09-02T01:58:41;94373.25;;;20.23;100.00
17309;BME280;8772;42.804;23.426;2022-09-02T02:01:08;94380.38;;;20.21;100.00
17309;BME280;8772;42.804;23.426;2022-09-02T02:03:36;94372.72;;;20.19;100.00
17309;BME280;8772;42.804;23.426;2022-09-02T02:06:07;94371.38;;;20.10;100.00
17309;BME280;8772;42.804;23.426;2022-09-02T02:08:34;94371.56;;;20.06;100.00
17309;BME280;8772;42.804;23.426;2022-09-02T02:11:01;94374.88;;;19.96;100.00
17309;BME280;8772;42.804;23.426;2022-09-02T02:13:29;94373.19;;;19.78;100.00
17309;BME280;8772;42.804;23.426;2022-09-02T02:15:57;94372.94;;;19.76;100.00
17309;BME280;8772;42.804;23.426;2022-09-02T02:18:24;94362.06;;;19.56;100.00
17309;BME280;8772;42.804;23.426;2022-09-02T02:20:51;94358.25;;;19.48;100.00
17309;BME280;8772;42.804;23.426;2022-09-02T02:23:19;94347.22;;;19.37;100.00
17309;BME280;8772;42.804;23.426;2022-09-02T02:25:46;94348.03;;;19.23;100.00
17309;BME280;8772;42.804;23.426;2022-09-02T02:28:13;94343.38;;;19.09;100.00
17309;BME280;8772;42.804;23.426;2022-09-02T02:30:41;94344.59;;;19.08;100.00
17309;BME280;8772;42.804;23.426;2022-09-02T02:33:08;94344.31;;;19.06;100.00
17309;BME280;8772;42.804;23.426;2022-09-02T02:35:35;94344.81;;;18.90;100.00
17309;BME280;8772;42.804;23.426;2022-09-02T02:38:02;94339.09;;;19.03;100.00
17309;BME280;8772;42.804;23.426;2022-09-02T02:40:30;94354.03;;;18.98;100.00
17309;BME280;8772;42.804;23.426;2022-09-02T02:42:57;94356.28;;;19.00;100.00
17309;BME280;8772;42.804;23.426;2022-09-02T02:45:24;94350.41;;;19.01;100.00
17309;BME280;8772;42.804;23.426;2022-09-02T02:47:53;94350.41;;;19.01;100.00
17309;BME280;8772;42.804;23.426;2022-09-02T02:50:22;94357.25;;;18.97;100.00
17309;BME280;8772;42.804;23.426;2022-09-02T02:52:50;94357.06;;;19.00;100.00
17309;BME280;8772;42.804;23.426;2022-09-02T02:55:20;94359.09;;;19.05;100.00
17309;BME280;8772;42.804;23.426;2022-09-02T02:57:48;94352.53;;;18.97;100.00
17309;BME280;8772;42.804;23.426;2022-09-02T03:00:18;94358.91;;;18.94;100.00
17309;BME280;8772;42.804;23.426;2022-09-02T03:02:45;94345.72;;;19.02;100.00
17309;BME280;8772;42.804;23.426;2022-09-02T03:05:14;94348.44;;;18.87;100.00
17309;BME280;8772;42.804;23.426;2022-09-02T03:07:42;94338.38;;;18.88;100.00
17309;BME280;8772;42.804;23.426;2022-09-02T03:10:11;94337.06;;;18.83;100.00
17309;BME280;8772;42.804;23.426;2022-09-02T03:12:38;94334.44;;;18.74;100.00
17309;BME280;8772;42.804;23.426;2022-09-02T03:15:07;94332.97;;;18.73;100.00
17309;BME280;8772;42.804;23.426;2022-09-02T03:17:35;94331.00;;;18.74;100.00
17309;BME280;8772;42.804;23.426;2022-09-02T03:20:04;94328.47;;;18.70;100.00
17309;BME280;8772;42.804;23.426;2022-09-02T03:22:34;94330.72;;;18.72;100.00
17309;BME280;8772;42.804;23.426;2022-09-02T03:25:04;94324.56;;;18.71;100.00
17309;BME280;8772;42.804;23.426;2022-09-02T03:27:31;94324.94;;;18.64;100.00
17309;BME280;8772;42.804;23.426;2022-09-02T03:29:59;94327.94;;;18.66;100.00
17309;BME280;8772;42.804;23.426;2022-09-02T03:32:26;94338.00;;;18.66;100.00
17309;BME280;8772;42.804;23.426;2022-09-02T03:34:53;94348.28;;;18.62;100.00
17309;BME280;8772;42.804;23.426;2022-09-02T03:37:20;94355.03;;;18.66;100.00
17309;BME280;8772;42.804;23.426;2022-09-02T03:39:48;94352.94;;;18.61;100.00
17309;BME280;8772;42.804;23.426;2022-09-02T03:42:15;94359.50;;;18.55;100.00
17309;BME280;8772;42.804;23.426;2022-09-02T03:44:42;94353.72;;;18.33;100.00
17309;BME280;8772;42.804;23.426;2022-09-02T03:47:09;94351.63;;;18.28;100.00
17309;BME280;8772;42.804;23.426;2022-09-02T03:49:38;94353.75;;;18.24;100.00
17309;BME280;8772;42.804;23.426;2022-09-02T03:52:05;94361.03;;;18.18;100.00
17309;BME280;8772;42.804;23.426;2022-09-02T03:54:32;94361.75;;;18.04;100.00
17309;BME280;8772;42.804;23.426;2022-09-02T03:57:01;94374.44;;;18.12;100.00
17309;BME280;8772;42.804;23.426;2022-09-02T03:59:28;94374.75;;;18.14;100.00
17309;BME280;8772;42.804;23.426;2022-09-02T04:01:55;94377.38;;;18.23;100.00
17309;BME280;8772;42.804;23.426;2022-09-02T04:04:24;94378.28;;;18.20;100.00
17309;BME280;8772;42.804;23.426;2022-09-02T04:06:51;94378.28;;;18.20;100.00
17309;BME280;8772;42.804;23.426;2022-09-02T04:09:19;94377.09;;;18.21;100.00
17309;BME280;8772;42.804;23.426;2022-09-02T04:11:46;94384.56;;;18.26;100.00
17309;BME280;8772;42.804;23.426;2022-09-02T04:14:15;94385.44;;;18.32;100.00
17309;BME280;8772;42.804;23.426;2022-09-02T04:16:42;94383.00;;;18.34;100.00
17309;BME280;8772;42.804;23.426;2022-09-02T04:19:09;94379.38;;;18.37;100.00
17309;BME280;8772;42.804;23.426;2022-09-02T04:21:37;94387.31;;;18.41;100.00
17309;BME280;8772;42.804;23.426;2022-09-02T04:24:06;94404.88;;;18.45;100.00
17309;BME280;8772;42.804;23.426;2022-09-02T04:26:34;94397.03;;;18.47;100.00
17309;BME280;8772;42.804;23.426;2022-09-02T04:29:02;94402.44;;;18.47;100.00
17309;BME280;8772;42.804;23.426;2022-09-02T04:31:30;94397.63;;;18.51;100.00
17309;BME280;8772;42.804;23.426;2022-09-02T04:33:58;94394.59;;;18.49;100.00
17309;BME280;8772;42.804;23.426;2022-09-02T04:36:25;94407.69;;;18.51;100.00
17309;BME280;8772;42.804;23.426;2022-09-02T04:38:53;94420.19;;;18.48;100.00
17309;BME280;8772;42.804;23.426;2022-09-02T04:41:22;94412.66;;;18.52;100.00
17309;BME280;8772;42.804;23.426;2022-09-02T04:43:50;94412.16;;;18.54;100.00
17309;BME280;8772;42.804;23.426;2022-09-02T04:46:18;94411.72;;;18.55;100.00
17309;BME280;8772;42.804;23.426;2022-09-02T04:48:47;94414.69;;;18.57;100.00
17309;BME280;8772;42.804;23.426;2022-09-02T04:51:16;94407.13;;;18.61;100.00
17309;BME280;8772;42.804;23.426;2022-09-02T04:53:44;94409.19;;;18.66;100.00
17309;BME280;8772;42.804;23.426;2022-09-02T04:56:13;94412.19;;;18.68;100.00
17309;BME280;8772;42.804;23.426;2022-09-02T04:58:41;94412.75;;;18.72;100.00
17309;BME280;8772;42.804;23.426;2022-09-02T05:01:10;94409.84;;;18.76;100.00
17309;BME280;8772;42.804;23.426;2022-09-02T05:03:38;94419.28;;;18.80;100.00
17309;BME280;8772;42.804;23.426;2022-09-02T05:06:08;94423.75;;;18.83;100.00
17309;BME280;8772;42.804;23.426;2022-09-02T05:08:36;94426.00;;;18.85;100.00
17309;BME280;8772;42.804;23.426;2022-09-02T05:11:04;94428.81;;;18.90;100.00
17309;BME280;8772;42.804;23.426;2022-09-02T05:13:31;94429.66;;;18.96;100.00
17309;BME280;8772;42.804;23.426;2022-09-02T05:15:58;94427.50;;;19.00;100.00
17309;BME280;8772;42.804;23.426;2022-09-02T05:18:25;94433.94;;;19.03;100.00
17309;BME280;8772;42.804;23.426;2022-09-02T05:20:52;94427.13;;;19.07;100.00
17309;BME280;8772;42.804;23.426;2022-09-02T05:23:21;94429.16;;;19.12;100.00
17309;BME280;8772;42.804;23.426;2022-09-02T05:25:48;94425.53;;;19.15;100.00
17309;BME280;8772;42.804;23.426;2022-09-02T05:28:15;94429.59;;;19.20;100.00
17309;BME280;8772;42.804;23.426;2022-09-02T05:30:42;94427.88;;;19.22;100.00
17309;BME280;8772;42.804;23.426;2022-09-02T05:33:09;94426.00;;;19.28;100.00
17309;BME280;8772;42.804;23.426;2022-09-02T05:35:38;94426.09;;;19.34;100.00
17309;BME280;8772;42.804;23.426;2022-09-02T05:38:05;94434.69;;;19.32;100.00
17309;BME280;8772;42.804;23.426;2022-09-02T05:40:35;94434.00;;;19.37;100.00
17309;BME280;8772;42.804;23.426;2022-09-02T05:43:02;94440.75;;;19.42;100.00
17309;BME280;8772;42.804;23.426;2022-09-02T05:45:29;94430.25;;;19.49;100.00
17309;BME280;8772;42.804;23.426;2022-09-02T05:47:56;94441.66;;;19.53;100.00
17309;BME280;8772;42.804;23.426;2022-09-02T05:50:23;94443.69;;;19.58;100.00
17309;BME280;8772;42.804;23.426;2022-09-02T05:52:50;94432.47;;;19.65;100.00
17309;BME280;8772;42.804;23.426;2022-09-02T05:55:17;94443.66;;;19.73;100.00
17309;BME280;8772;42.804;23.426;2022-09-02T05:57:45;94435.03;;;19.74;100.00
17309;BME280;8772;42.804;23.426;2022-09-02T06:00:13;94435.59;;;19.78;100.00
17309;BME280;8772;42.804;23.426;2022-09-02T06:02:41;94425.28;;;19.82;100.00
17309;BME280;8772;42.804;23.426;2022-09-02T06:05:09;94435.06;;;19.94;100.00
17309;BME280;8772;42.804;23.426;2022-09-02T06:07:37;94433.59;;;19.93;100.00
17309;BME280;8772;42.804;23.426;2022-09-02T06:10:04;94435.72;;;20.04;100.00
17309;BME280;8772;42.804;23.426;2022-09-02T06:12:32;94429.88;;;20.11;100.00
17309;BME280;8772;42.804;23.426;2022-09-02T06:15:00;94435.66;;;20.18;100.00
17309;BME280;8772;42.804;23.426;2022-09-02T06:17:28;94438.16;;;20.21;100.00
17309;BME280;8772;42.804;23.426;2022-09-02T06:19:55;94429.81;;;20.25;100.00
17309;BME280;8772;42.804;23.426;2022-09-02T06:22:23;94435.03;;;20.28;100.00
17309;BME280;8772;42.804;23.426;2022-09-02T06:24:50;94438.75;;;20.31;100.00
17309;BME280;8772;42.804;23.426;2022-09-02T06:27:18;94439.38;;;20.40;100.00
17309;BME280;8772;42.804;23.426;2022-09-02T06:29:45;94438.69;;;20.45;100.00
17309;BME280;8772;42.804;23.426;2022-09-02T06:32:14;94438.25;;;20.52;100.00
17309;BME280;8772;42.804;23.426;2022-09-02T06:34:41;94444.78;;;20.60;100.00
17309;BME280;8772;42.804;23.426;2022-09-02T06:37:08;94442.13;;;20.66;100.00
17309;BME280;8772;42.804;23.426;2022-09-02T06:39:35;94447.13;;;20.73;100.00
17309;BME280;8772;42.804;23.426;2022-09-02T06:42:02;94446.44;;;20.78;100.00
17309;BME280;8772;42.804;23.426;2022-09-02T06:44:29;94445.22;;;20.79;100.00
17309;BME280;8772;42.804;23.426;2022-09-02T06:46:57;94439.06;;;20.84;100.00
17309;BME280;8772;42.804;23.426;2022-09-02T06:49:26;94444.81;;;20.86;100.00
17309;BME280;8772;42.804;23.426;2022-09-02T06:51:54;94441.16;;;20.89;100.00
17309;BME280;8772;42.804;23.426;2022-09-02T06:54:22;94447.38;;;20.95;100.00
17309;BME280;8772;42.804;23.426;2022-09-02T06:56:50;94456.34;;;21.01;100.00
17309;BME280;8772;42.804;23.426;2022-09-02T06:59:18;94444.00;;;21.05;100.00
17309;BME280;8772;42.804;23.426;2022-09-02T07:01:46;94446.75;;;21.11;100.00
17309;BME280;8772;42.804;23.426;2022-09-02T07:04:14;94448.28;;;21.17;100.00
17309;BME280;8772;42.804;23.426;2022-09-02T07:06:59;94449.56;;;21.22;100.00
17309;BME280;8772;42.804;23.426;2022-09-02T07:09:27;94452.34;;;21.27;100.00
17309;BME280;8772;42.804;23.426;2022-09-02T07:11:57;94457.09;;;21.32;100.00
17309;BME280;8772;42.804;23.426;2022-09-02T07:14:24;94460.13;;;21.40;100.00
17309;BME280;8772;42.804;23.426;2022-09-02T07:16:54;94460.63;;;21.44;100.00
17309;BME280;8772;42.804;23.426;2022-09-02T07:19:24;94468.84;;;21.49;100.00
17309;BME280;8772;42.804;23.426;2022-09-02T07:21:52;94465.41;;;21.54;100.00
17309;BME280;8772;42.804;23.426;2022-09-02T07:24:20;94477.81;;;21.61;100.00
17309;BME280;8772;42.804;23.426;2022-09-02T07:26:47;94462.53;;;21.63;100.00
17309;BME280;8772;42.804;23.426;2022-09-02T07:29:15;94473.94;;;21.67;100.00
17309;BME280;8772;42.804;23.426;2022-09-02T07:31:45;94472.22;;;21.70;100.00
17309;BME280;8772;42.804;23.426;2022-09-02T07:34:12;94468.06;;;21.74;100.00
17309;BME280;8772;42.804;23.426;2022-09-02T07:36:40;94453.97;;;21.76;100.00
17309;BME280;8772;42.804;23.426;2022-09-02T07:39:09;94462.69;;;21.85;100.00
17309;BME280;8772;42.804;23.426;2022-09-02T07:41:42;94469.66;;;21.92;100.00
17309;BME280;8772;42.804;23.426;2022-09-02T07:44:10;94471.41;;;21.95;100.00
17309;BME280;8772;42.804;23.426;2022-09-02T07:46:37;94467.44;;;21.96;100.00
17309;BME280;8772;42.804;23.426;2022-09-02T07:49:07;94471.91;;;21.99;100.00
17309;BME280;8772;42.804;23.426;2022-09-02T07:51:36;94473.94;;;22.04;100.00
17309;BME280;8772;42.804;23.426;2022-09-02T07:54:04;94476.94;;;22.11;100.00
17309;BME280;8772;42.804;23.426;2022-09-02T07:56:31;94474.47;;;22.13;100.00
17309;BME280;8772;42.804;23.426;2022-09-02T07:59:00;94483.16;;;22.17;100.00
17309;BME280;8772;42.804;23.426;2022-09-02T08:01:27;94475.00;;;22.23;100.00
17309;BME280;8772;42.804;23.426;2022-09-02T08:03:54;94472.81;;;22.27;100.00
17309;BME280;8772;42.804;23.426;2022-09-02T08:06:22;94477.47;;;22.21;100.00
17309;BME280;8772;42.804;23.426;2022-09-02T08:08:51;94470.53;;;22.20;100.00
17309;BME280;8772;42.804;23.426;2022-09-02T08:11:19;94472.56;;;22.25;100.00
17309;BME280;8772;42.804;23.426;2022-09-02T08:13:46;94476.28;;;22.27;100.00
17309;BME280;8772;42.804;23.426;2022-09-02T08:16:15;94480.00;;;22.30;100.00
17309;BME280;8772;42.804;23.426;2022-09-02T08:18:43;94478.81;;;22.36;100.00
17309;BME280;8772;42.804;23.426;2022-09-02T08:21:09;94493.50;;;22.50;100.00
17309;BME280;8772;42.804;23.426;2022-09-02T08:23:37;94494.75;;;22.54;100.00
17309;BME280;8772;42.804;23.426;2022-09-02T08:26:06;94493.78;;;22.57;100.00
17309;BME280;8772;42.804;23.426;2022-09-02T08:28:33;94488.59;;;22.64;100.00
17309;BME280;8772;42.804;23.426;2022-09-02T08:31:04;94487.63;;;22.73;100.00
17309;BME280;8772;42.804;23.426;2022-09-02T08:33:32;94490.63;;;22.80;100.00
17309;BME280;8772;42.804;23.426;2022-09-02T08:36:02;94484.72;;;22.87;100.00
17309;BME280;8772;42.804;23.426;2022-09-02T08:38:29;94478.75;;;22.94;100.00
17309;BME280;8772;42.804;23.426;2022-09-02T08:40:56;94488.44;;;23.01;100.00
17309;BME280;8772;42.804;23.426;2022-09-02T08:43:28;94484.72;;;23.09;100.00
17309;BME280;8772;42.804;23.426;2022-09-02T08:45:59;94470.59;;;23.11;100.00
17309;BME280;8772;42.804;23.426;2022-09-02T08:48:36;94480.56;;;23.19;100.00
17309;BME280;8772;42.804;23.426;2022-09-02T08:51:07;94474.38;;;23.24;100.00
17309;BME280;8772;42.804;23.426;2022-09-02T08:53:42;94478.09;;;23.27;100.00
17309;BME280;8772;42.804;23.426;2022-09-02T08:56:12;94482.81;;;23.32;100.00
17309;BME280;8772;42.804;23.426;2022-09-02T08:58:43;94493.00;;;23.37;100.00
17309;BME280;8772;42.804;23.426;2022-09-02T09:01:19;94480.84;;;23.43;100.00
17309;BME280;8772;42.804;23.426;2022-09-02T09:04:07;94474.13;;;23.55;100.00
17309;BME280;8772;42.804;23.426;2022-09-02T09:06:47;94464.69;;;23.67;100.00
17309;BME280;8772;42.804;23.426;2022-09-02T09:09:24;94476.63;;;23.70;100.00
17309;BME280;8772;42.804;23.426;2022-09-02T09:12:03;94472.13;;;23.78;100.00
17309;BME280;8772;42.804;23.426;2022-09-02T09:14:39;94473.13;;;23.80;100.00
17309;BME280;8772;42.804;23.426;2022-09-02T09:17:13;94472.38;;;23.85;100.00
17309;BME280;8772;42.804;23.426;2022-09-02T09:19:49;94471.41;;;23.94;100.00
17309;BME280;8772;42.804;23.426;2022-09-02T09:22:19;94471.88;;;24.03;100.00
17309;BME280;8772;42.804;23.426;2022-09-02T09:24:49;94474.34;;;24.12;100.00
17309;BME280;8772;42.804;23.426;2022-09-02T09:27:17;94477.03;;;24.23;100.00
17309;BME280;8772;42.804;23.426;2022-09-02T09:29:44;94469.81;;;24.31;100.00
17309;BME280;8772;42.804;23.426;2022-09-02T09:32:22;94477.72;;;24.40;100.00
17309;BME280;8772;42.804;23.426;2022-09-02T09:34:59;94464.13;;;24.24;100.00
17309;BME280;8772;42.804;23.426;2022-09-02T09:37:30;94461.84;;;24.33;100.00
17309;BME280;8772;42.804;23.426;2022-09-02T09:39:57;94460.31;;;24.43;100.00
17309;BME280;8772;42.804;23.426;2022-09-02T09:42:33;94459.78;;;24.61;100.00
17309;BME280;8772;42.804;23.426;2022-09-02T09:45:15;94446.59;;;24.60;100.00
17309;BME280;8772;42.804;23.426;2022-09-02T09:47:43;94449.75;;;24.75;100.00
17309;BME280;8772;42.804;23.426;2022-09-02T09:50:15;94445.72;;;24.81;100.00
17309;BME280;8772;42.804;23.426;2022-09-02T09:52:43;94445.31;;;24.66;100.00
17309;BME280;8772;42.804;23.426;2022-09-02T09:55:16;94452.66;;;24.88;100.00
17309;BME280;8772;42.804;23.426;2022-09-02T09:57:46;94461.50;;;25.04;100.00
17309;BME280;8772;42.804;23.426;2022-09-02T10:00:19;94470.22;;;25.08;100.00
17309;BME280;8772;42.804;23.426;2022-09-02T10:02:48;94466.47;;;25.06;100.00
17309;BME280;8772;42.804;23.426;2022-09-02T10:05:27;94463.44;;;25.15;100.00
17309;BME280;8772;42.804;23.426;2022-09-02T10:07:56;94471.41;;;25.18;100.00
17309;BME280;8772;42.804;23.426;2022-09-02T10:10:25;94468.38;;;25.22;100.00
17309;BME280;8772;42.804;23.426;2022-09-02T10:12:55;94465.91;;;25.24;100.00
17309;BME280;8772;42.804;23.426;2022-09-02T10:15:30;94461.91;;;25.25;100.00
17309;BME280;8772;42.804;23.426;2022-09-02T10:18:10;94469.09;;;25.28;100.00
17309;BME280;8772;42.804;23.426;2022-09-02T10:20:51;94459.88;;;25.31;100.00
17309;BME280;8772;42.804;23.426;2022-09-02T10:23:35;94460.31;;;25.35;100.00
17309;BME280;8772;42.804;23.426;2022-09-02T10:26:15;94465.25;;;25.42;100.00
17309;BME280;8772;42.804;23.426;2022-09-02T10:29:24;94458.50;;;25.48;100.00
17309;BME280;8772;42.804;23.426;2022-09-02T10:32:09;94453.78;;;25.49;100.00
17309;BME280;8772;42.804;23.426;2022-09-02T10:34:50;94457.19;;;25.55;100.00
17309;BME280;8772;42.804;23.426;2022-09-02T10:37:24;94458.69;;;25.56;100.00
17309;BME280;8772;42.804;23.426;2022-09-02T10:40:04;94454.88;;;25.64;100.00
17309;BME280;8772;42.804;23.426;2022-09-02T10:42:41;94460.06;;;25.68;100.00
17309;BME280;8772;42.804;23.426;2022-09-02T10:45:15;94457.56;;;25.70;100.00
17309;BME280;8772;42.804;23.426;2022-09-02T10:47:48;94465.41;;;25.55;99.26
17309;BME280;8772;42.804;23.426;2022-09-02T10:50:23;94465.88;;;25.59;100.00
17309;BME280;8772;42.804;23.426;2022-09-02T10:53:05;94465.13;;;25.58;100.00
17309;BME280;8772;42.804;23.426;2022-09-02T10:55:43;94456.75;;;25.51;99.65
17309;BME280;8772;42.804;23.426;2022-09-02T10:58:20;94459.25;;;25.49;100.00
17309;BME280;8772;42.804;23.426;2022-09-02T11:00:52;94461.00;;;25.46;100.00
17309;BME280;8772;42.804;23.426;2022-09-02T11:03:27;94454.78;;;25.46;100.00
17309;BME280;8772;42.804;23.426;2022-09-02T11:05:57;94449.78;;;25.50;100.00
17309;BME280;8772;42.804;23.426;2022-09-02T11:08:37;94453.25;;;25.50;100.00
17309;BME280;8772;42.804;23.426;2022-09-02T11:11:08;94455.25;;;25.50;100.00
17309;BME280;8772;42.804;23.426;2022-09-02T11:13:41;94455.97;;;25.50;100.00
17309;BME280;8772;42.804;23.426;2022-09-02T11:16:19;94447.72;;;25.56;100.00
17309;BME280;8772;42.804;23.426;2022-09-02T11:18:53;94451.63;;;25.66;100.00
17309;BME280;8772;42.804;23.426;2022-09-02T11:21:33;94449.56;;;25.72;100.00
17309;BME280;8772;42.804;23.426;2022-09-02T11:24:09;94441.59;;;25.74;99.70
17309;BME280;8772;42.804;23.426;2022-09-02T11:26:45;94442.28;;;25.80;100.00
17309;BME280;8772;42.804;23.426;2022-09-02T11:29:18;94436.78;;;25.80;100.00
17309;BME280;8772;42.804;23.426;2022-09-02T11:31:53;94430.50;;;25.85;100.00
17309;BME280;8772;42.804;23.426;2022-09-02T11:34:34;94437.03;;;25.82;100.00
17309;BME280;8772;42.804;23.426;2022-09-02T11:37:06;94424.09;;;25.53;96.85
17309;BME280;8772;42.804;23.426;2022-09-02T11:39:38;94427.06;;;25.55;100.00
17309;BME280;8772;42.804;23.426;2022-09-02T11:42:21;94418.84;;;25.55;100.00
17309;BME280;8772;42.804;23.426;2022-09-02T11:48:09;94405.56;;;25.35;100.00
17309;BME280;8772;42.804;23.426;2022-09-02T11:50:52;94400.47;;;25.50;100.00
17309;BME280;8772;42.804;23.426;2022-09-02T11:53:24;94391.69;;;25.57;100.00
17309;BME280;8772;42.804;23.426;2022-09-02T11:55:58;94390.94;;;25.86;100.00
17309;BME280;8772;42.804;23.426;2022-09-02T11:58:36;94392.66;;;25.59;100.00
17309;BME280;8772;42.804;23.426;2022-09-02T12:01:16;94387.19;;;25.83;100.00
17309;BME280;8772;42.804;23.426;2022-09-02T12:03:48;94391.09;;;25.93;95.19
17309;BME280;8772;42.804;23.426;2022-09-02T12:06:18;94390.22;;;25.80;91.72
17309;BME280;8772;42.804;23.426;2022-09-02T12:09:09;94390.75;;;26.02;97.63
17309;BME280;8772;42.804;23.426;2022-09-02T12:11:46;94389.38;;;26.33;91.59
17309;BME280;8772;42.804;23.426;2022-09-02T12:17:35;94390.59;;;27.42;96.13
17309;BME280;8772;42.804;23.426;2022-09-02T12:20:04;94392.81;;;27.88;84.82
17309;BME280;8772;42.804;23.426;2022-09-02T12:22:34;94404.13;;;28.37;82.38
17309;BME280;8772;42.804;23.426;2022-09-02T12:25:35;94395.19;;;28.70;76.44
17309;BME280;8772;42.804;23.426;2022-09-02T12:28:22;94384.47;;;28.92;76.08
17309;BME280;8772;42.804;23.426;2022-09-02T12:31:13;94386.03;;;29.21;74.39
17309;BME280;8772;42.804;23.426;2022-09-02T12:33:42;94372.47;;;29.44;74.87
17309;BME280;8772;42.804;23.426;2022-09-02T12:36:45;94377.19;;;29.56;70.43
17309;BME280;8772;42.804;23.426;2022-09-02T12:39:46;94374.63;;;29.58;66.39
17309;BME280;8772;42.804;23.426;2022-09-02T12:42:24;94369.91;;;29.66;67.63
17309;BME280;8772;42.804;23.426;2022-09-02T12:45:02;94359.06;;;29.68;65.90
17309;BME280;8772;42.804;23.426;2022-09-02T12:47:39;94354.28;;;29.89;69.45
17309;BME280;8772;42.804;23.426;2022-09-02T12:50:19;94345.75;;;29.80;66.03
17309;BME280;8772;42.804;23.426;2022-09-02T12:52:50;94348.00;;;29.40;64.68
17309;BME280;8772;42.804;23.426;2022-09-02T12:55:21;94345.00;;;29.51;70.67
17309;BME280;8772;42.804;23.426;2022-09-02T12:57:51;94332.31;;;29.48;65.92
17309;BME280;8772;42.804;23.426;2022-09-02T13:00:32;94343.72;;;29.52;67.15
17309;BME280;8772;42.804;23.426;2022-09-02T13:03:16;94336.72;;;29.51;66.27
17309;BME280;8772;42.804;23.426;2022-09-02T13:05:54;94331.38;;;29.74;67.34
17309;BME280;8772;42.804;23.426;2022-09-02T13:14:52;94330.16;;;30.10;66.29
17309;BME280;8772;42.804;23.426;2022-09-02T13:17:33;94334.44;;;30.18;62.46
17309;BME280;8772;42.804;23.426;2022-09-02T13:23:32;94333.22;;;30.42;66.21
17309;BME280;8772;42.804;23.426;2022-09-02T13:26:23;94337.16;;;30.54;63.33
17309;BME280;8772;42.804;23.426;2022-09-02T13:31:59;94330.72;;;30.59;59.71
17309;BME280;8772;42.804;23.426;2022-09-02T13:34:30;94319.75;;;30.74;61.49